Startpagina
METAR-TAF:

METAR-TAF

Vliegvelden :

Weno, Micronesië

breedte: 07-28N, lengte: 151-51E, hoogte: 3 m

Actueel weer

Dit bericht is 21 minuten geleden gemaakt, om 19:50 UTC
Wind 8 kt uit het noordoosten
Temperatuur 27°C
Vochtigheid 84%
Druk 1010 hPa
Zicht: 24.1 km
Weinig wolken op 1200 ft
Verspreide wolken op 12000 ft
Gebroken wolken op 28000 ft

METAR: PTKK 241950Z 05008KT 15SM FEW012 SCT120 BKN280 27/24 A2982 RMK SLP100 T02730239

Tijdstip: 06:11 (20:11 UTC)

Verwachting

Dit bericht is 2 uur en het 4 minuten geleden gemaakt, om 18:07 UTC
Verwachting geldig van 24 om 18 UTC tot 25 om 18 UTC
Wind 16 kt uit het noordoosten
Zicht: 10 km
Weinig wolken op 2000 ft
Verspreide wolken op 12000 ft

TAF: PTKK 241807Z 2418/2518 04016KT P6SM FEW020 SCT120

Waarnemingen en weersverwachtingen van meer dan 4000 vliegvelden (METAR en TAF).

De beschikbare stations zijn de gele en rode punten op de kaart.

Ga met uw muis naar het station om de naam te zien.

Klik dan om waarnemingen en weersverwachtingen te zien.

kaart wijzigen: klik op de groene knoppen met een zwart kruis om in te zoomen, op de groene knop met een streepje om uit te zoomen of op de groene pijlen voor aangrenzende kaarten.


METAR-TAF: